sensor_id;sensor_type;location;lat;lon;timestamp;P1;durP1;ratioP1;P2;durP2;ratioP2
73315;SDS011;61545;53.726;-0.444;2022-10-16T00:04:43;9.9;;;2.3;;
73315;SDS011;61545;53.726;-0.444;2022-10-16T00:09:43;11.4;;;2.7;;
73315;SDS011;61545;53.726;-0.444;2022-10-16T00:14:43;10.5;;;2.3;;
73315;SDS011;61545;53.726;-0.444;2022-10-16T00:19:43;7.0;;;1.7;;
73315;SDS011;61545;53.726;-0.444;2022-10-16T00:24:43;7.0;;;1.7;;
73315;SDS011;61545;53.726;-0.444;2022-10-16T00:29:43;12.1;;;2;;
73315;SDS011;61545;53.726;-0.444;2022-10-16T00:34:43;12.4;;;2.3;;
73315;SDS011;61545;53.726;-0.444;2022-10-16T00:39:43;8.3;;;1.8;;
73315;SDS011;61545;53.726;-0.444;2022-10-16T00:44:46;13.3;;;2.3;;
73315;SDS011;61545;53.726;-0.444;2022-10-16T00:49:43;9.8;;;2.3;;
73315;SDS011;61545;53.726;-0.444;2022-10-16T00:54:43;9.8;;;2.3;;
73315;SDS011;61545;53.726;-0.444;2022-10-16T00:59:43;9.7;;;2.2;;
73315;SDS011;61545;53.726;-0.444;2022-10-16T01:04:44;13.4;;;2.8;;
73315;SDS011;61545;53.726;-0.444;2022-10-16T01:09:49;13.5;;;2.4;;
73315;SDS011;61545;53.726;-0.444;2022-10-16T01:14:45;12.2;;;1.9;;
73315;SDS011;61545;53.726;-0.444;2022-10-16T01:19:51;14.4;;;2.1;;
73315;SDS011;61545;53.726;-0.444;2022-10-16T01:24:44;14.4;;;2.1;;
73315;SDS011;61545;53.726;-0.444;2022-10-16T01:29:48;10.4;;;2;;
73315;SDS011;61545;53.726;-0.444;2022-10-16T01:34:47;11.5;;;2.3;;
73315;SDS011;61545;53.726;-0.444;2022-10-16T01:39:45;15.0;;;3.2;;
73315;SDS011;61545;53.726;-0.444;2022-10-16T01:44:43;18.0;;;3.9;;
73315;SDS011;61545;53.726;-0.444;2022-10-16T01:49:43;16.6;;;3.7;;
73315;SDS011;61545;53.726;-0.444;2022-10-16T01:54:43;16.6;;;3.7;;
73315;SDS011;61545;53.726;-0.444;2022-10-16T01:59:44;15.5;;;3.6;;
73315;SDS011;61545;53.726;-0.444;2022-10-16T02:04:44;19.5;;;3.6;;
73315;SDS011;61545;53.726;-0.444;2022-10-16T02:09:43;11.6;;;2.7;;
73315;SDS011;61545;53.726;-0.444;2022-10-16T02:14:43;12.8;;;3;;
73315;SDS011;61545;53.726;-0.444;2022-10-16T02:19:43;17.1;;;3.3;;
73315;SDS011;61545;53.726;-0.444;2022-10-16T02:24:47;17.1;;;3.3;;
73315;SDS011;61545;53.726;-0.444;2022-10-16T02:29:45;11.0;;;2.7;;
73315;SDS011;61545;53.726;-0.444;2022-10-16T02:34:43;18.5;;;4.4;;
73315;SDS011;61545;53.726;-0.444;2022-10-16T02:39:43;14.4;;;3.5;;
73315;SDS011;61545;53.726;-0.444;2022-10-16T02:44:43;15.1;;;3.1;;
73315;SDS011;61545;53.726;-0.444;2022-10-16T02:49:43;11.6;;;2.7;;
73315;SDS011;61545;53.726;-0.444;2022-10-16T02:54:43;11.6;;;2.7;;
73315;SDS011;61545;53.726;-0.444;2022-10-16T02:59:43;12.7;;;2.4;;
73315;SDS011;61545;53.726;-0.444;2022-10-16T03:04:43;9.3;;;2.3;;
73315;SDS011;61545;53.726;-0.444;2022-10-16T03:09:43;10.9;;;2.1;;
73315;SDS011;61545;53.726;-0.444;2022-10-16T03:14:43;9.1;;;1.9;;
73315;SDS011;61545;53.726;-0.444;2022-10-16T03:19:43;7.1;;;1.5;;
73315;SDS011;61545;53.726;-0.444;2022-10-16T03:24:43;7.1;;;1.5;;
73315;SDS011;61545;53.726;-0.444;2022-10-16T03:29:43;7.6;;;1.7;;
73315;SDS011;61545;53.726;-0.444;2022-10-16T03:34:43;8.0;;;2.2;;
73315;SDS011;61545;53.726;-0.444;2022-10-16T03:39:43;8.8;;;1.7;;
73315;SDS011;61545;53.726;-0.444;2022-10-16T03:44:43;9.8;;;1.5;;
73315;SDS011;61545;53.726;-0.444;2022-10-16T03:49:43;5.1;;;1.1;;
73315;SDS011;61545;53.726;-0.444;2022-10-16T03:54:43;5.1;;;1.1;;
73315;SDS011;61545;53.726;-0.444;2022-10-16T03:59:43;5.1;;;1.1;;
73315;SDS011;61545;53.726;-0.444;2022-10-16T04:04:43;6.6;;;1.2;;
73315;SDS011;61545;53.726;-0.444;2022-10-16T04:09:43;5.7;;;1.3;;
73315;SDS011;61545;53.726;-0.444;2022-10-16T04:14:43;8.3;;;1.3;;
73315;SDS011;61545;53.726;-0.444;2022-10-16T04:19:43;6.1;;;1;;
73315;SDS011;61545;53.726;-0.444;2022-10-16T04:24:43;6.1;;;1;;
73315;SDS011;61545;53.726;-0.444;2022-10-16T04:29:43;6.1;;;1.4;;
73315;SDS011;61545;53.726;-0.444;2022-10-16T04:34:43;7.9;;;1.6;;
73315;SDS011;61545;53.726;-0.444;2022-10-16T04:39:43;4.1;;;1;;
73315;SDS011;61545;53.726;-0.444;2022-10-16T04:44:43;5.2;;;1.3;;
73315;SDS011;61545;53.726;-0.444;2022-10-16T04:49:43;5.8;;;1.2;;
73315;SDS011;61545;53.726;-0.444;2022-10-16T04:54:43;5.8;;;1.2;;
73315;SDS011;61545;53.726;-0.444;2022-10-16T04:59:43;5.6;;;1.3;;
73315;SDS011;61545;53.726;-0.444;2022-10-16T05:04:43;4.1;;;1.2;;
73315;SDS011;61545;53.726;-0.444;2022-10-16T05:09:43;4.2;;;1.2;;
73315;SDS011;61545;53.726;-0.444;2022-10-16T05:14:43;6.9;;;1.5;;
73315;SDS011;61545;53.726;-0.444;2022-10-16T05:19:43;7.3;;;1.3;;
73315;SDS011;61545;53.726;-0.444;2022-10-16T05:24:43;7.3;;;1.3;;
73315;SDS011;61545;53.726;-0.444;2022-10-16T05:29:43;4.4;;;1;;
73315;SDS011;61545;53.726;-0.444;2022-10-16T05:34:43;7.4;;;1.1;;
73315;SDS011;61545;53.726;-0.444;2022-10-16T05:39:43;6.9;;;1.2;;
73315;SDS011;61545;53.726;-0.444;2022-10-16T05:44:43;4.1;;;1;;
73315;SDS011;61545;53.726;-0.444;2022-10-16T05:49:43;5.2;;;1.5;;
73315;SDS011;61545;53.726;-0.444;2022-10-16T05:54:43;5.2;;;1.5;;
73315;SDS011;61545;53.726;-0.444;2022-10-16T05:59:43;2.9;;;0.8;;
73315;SDS011;61545;53.726;-0.444;2022-10-16T06:04:43;5.0;;;1.1;;
73315;SDS011;61545;53.726;-0.444;2022-10-16T06:09:43;4.9;;;1.2;;
73315;SDS011;61545;53.726;-0.444;2022-10-16T06:14:43;3.6;;;1.2;;
73315;SDS011;61545;53.726;-0.444;2022-10-16T06:19:43;7.1;;;0.9;;
73315;SDS011;61545;53.726;-0.444;2022-10-16T06:24:43;7.1;;;0.9;;
73315;SDS011;61545;53.726;-0.444;2022-10-16T06:29:43;4.3;;;0.8;;
73315;SDS011;61545;53.726;-0.444;2022-10-16T06:34:43;5.0;;;1.1;;
73315;SDS011;61545;53.726;-0.444;2022-10-16T06:39:43;6.6;;;1.4;;
73315;SDS011;61545;53.726;-0.444;2022-10-16T06:44:43;4.2;;;1;;
73315;SDS011;61545;53.726;-0.444;2022-10-16T06:49:43;5.8;;;1.1;;
73315;SDS011;61545;53.726;-0.444;2022-10-16T06:54:43;5.8;;;1.1;;
73315;SDS011;61545;53.726;-0.444;2022-10-16T06:59:43;3.2;;;1;;
73315;SDS011;61545;53.726;-0.444;2022-10-16T07:04:43;8.5;;;1.2;;
73315;SDS011;61545;53.726;-0.444;2022-10-16T07:09:43;5.6;;;1.2;;
73315;SDS011;61545;53.726;-0.444;2022-10-16T07:14:43;2.4;;;0.9;;
73315;SDS011;61545;53.726;-0.444;2022-10-16T07:19:43;7.0;;;1.3;;
73315;SDS011;61545;53.726;-0.444;2022-10-16T07:24:43;7.0;;;1.3;;
73315;SDS011;61545;53.726;-0.444;2022-10-16T07:29:43;5.5;;;1.2;;
73315;SDS011;61545;53.726;-0.444;2022-10-16T07:34:43;5.6;;;1.1;;
73315;SDS011;61545;53.726;-0.444;2022-10-16T07:39:43;5.6;;;1.1;;
73315;SDS011;61545;53.726;-0.444;2022-10-16T07:44:43;4.2;;;0.9;;
73315;SDS011;61545;53.726;-0.444;2022-10-16T07:49:43;3.6;;;1.3;;
73315;SDS011;61545;53.726;-0.444;2022-10-16T07:54:43;3.6;;;1.3;;
73315;SDS011;61545;53.726;-0.444;2022-10-16T07:59:43;6.2;;;0.9;;
73315;SDS011;61545;53.726;-0.444;2022-10-16T08:04:43;4.4;;;1.3;;
73315;SDS011;61545;53.726;-0.444;2022-10-16T08:09:43;5.4;;;1.1;;
73315;SDS011;61545;53.726;-0.444;2022-10-16T08:14:43;6.6;;;0.9;;
73315;SDS011;61545;53.726;-0.444;2022-10-16T08:19:44;8.2;;;1.7;;
73315;SDS011;61545;53.726;-0.444;2022-10-16T08:24:43;8.2;;;1.7;;
73315;SDS011;61545;53.726;-0.444;2022-10-16T08:29:43;4.7;;;0.9;;
73315;SDS011;61545;53.726;-0.444;2022-10-16T08:34:43;5.6;;;1.2;;
73315;SDS011;61545;53.726;-0.444;2022-10-16T08:39:43;5.7;;;0.7;;
73315;SDS011;61545;53.726;-0.444;2022-10-16T08:45:01;6.5;;;1;;
73315;SDS011;61545;53.726;-0.444;2022-10-16T08:49:47;5.1;;;1;;
73315;SDS011;61545;53.726;-0.444;2022-10-16T08:54:44;5.1;;;1;;
73315;SDS011;61545;53.726;-0.444;2022-10-16T08:59:43;5.1;;;1.3;;
73315;SDS011;61545;53.726;-0.444;2022-10-16T09:04:48;5.3;;;1.3;;
73315;SDS011;61545;53.726;-0.444;2022-10-16T09:09:50;6.4;;;1.1;;
73315;SDS011;61545;53.726;-0.444;2022-10-16T09:14:50;5.6;;;1.7;;
73315;SDS011;61545;53.726;-0.444;2022-10-16T09:19:45;5.6;;;1.2;;
73315;SDS011;61545;53.726;-0.444;2022-10-16T09:24:43;6.1;;;1.2;;
73315;SDS011;61545;53.726;-0.444;2022-10-16T09:29:43;5.2;;;1.4;;
73315;SDS011;61545;53.726;-0.444;2022-10-16T09:34:45;4.9;;;1.1;;
73315;SDS011;61545;53.726;-0.444;2022-10-16T09:39:44;5.5;;;0.9;;
73315;SDS011;61545;53.726;-0.444;2022-10-16T09:44:46;3.0;;;1;;
73315;SDS011;61545;53.726;-0.444;2022-10-16T09:49:51;3.0;;;1;;
73315;SDS011;61545;53.726;-0.444;2022-10-16T09:54:49;6.7;;;1.2;;
73315;SDS011;61545;53.726;-0.444;2022-10-16T09:59:46;3.9;;;1.2;;
73315;SDS011;61545;53.726;-0.444;2022-10-16T10:04:48;7.8;;;1.1;;
73315;SDS011;61545;53.726;-0.444;2022-10-16T10:09:43;4.4;;;0.9;;
73315;SDS011;61545;53.726;-0.444;2022-10-16T10:14:44;3.5;;;1.2;;
73315;SDS011;61545;53.726;-0.444;2022-10-16T10:19:47;3.5;;;1.2;;
73315;SDS011;61545;53.726;-0.444;2022-10-16T10:24:43;6.9;;;0.9;;
73315;SDS011;61545;53.726;-0.444;2022-10-16T10:29:47;3.4;;;1;;
73315;SDS011;61545;53.726;-0.444;2022-10-16T10:34:52;4.0;;;1;;
73315;SDS011;61545;53.726;-0.444;2022-10-16T10:39:44;7.0;;;1.3;;
73315;SDS011;61545;53.726;-0.444;2022-10-16T10:44:54;3.7;;;1.2;;
73315;SDS011;61545;53.726;-0.444;2022-10-16T10:49:49;3.7;;;1.2;;
73315;SDS011;61545;53.726;-0.444;2022-10-16T10:54:47;3.9;;;0.9;;
73315;SDS011;61545;53.726;-0.444;2022-10-16T10:59:51;3.4;;;1.2;;
73315;SDS011;61545;53.726;-0.444;2022-10-16T11:04:50;3.7;;;1.1;;
73315;SDS011;61545;53.726;-0.444;2022-10-16T11:09:44;3.6;;;1;;
73315;SDS011;61545;53.726;-0.444;2022-10-16T11:14:46;4.3;;;0.9;;
73315;SDS011;61545;53.726;-0.444;2022-10-16T11:19:45;4.3;;;0.9;;
73315;SDS011;61545;53.726;-0.444;2022-10-16T11:24:45;5.4;;;0.9;;
73315;SDS011;61545;53.726;-0.444;2022-10-16T11:29:46;4.4;;;1;;
73315;SDS011;61545;53.726;-0.444;2022-10-16T11:34:45;3.6;;;0.8;;
73315;SDS011;61545;53.726;-0.444;2022-10-16T11:39:43;4.6;;;1;;
73315;SDS011;61545;53.726;-0.444;2022-10-16T11:44:48;3.5;;;0.9;;
73315;SDS011;61545;53.726;-0.444;2022-10-16T11:49:43;3.5;;;0.9;;
73315;SDS011;61545;53.726;-0.444;2022-10-16T11:54:45;6.1;;;1.1;;
73315;SDS011;61545;53.726;-0.444;2022-10-16T11:59:45;4.9;;;0.9;;
73315;SDS011;61545;53.726;-0.444;2022-10-16T12:04:45;2.9;;;0.7;;
73315;SDS011;61545;53.726;-0.444;2022-10-16T12:09:43;2.3;;;0.8;;
73315;SDS011;61545;53.726;-0.444;2022-10-16T12:14:43;2.4;;;0.8;;
73315;SDS011;61545;53.726;-0.444;2022-10-16T12:19:43;2.4;;;0.8;;
73315;SDS011;61545;53.726;-0.444;2022-10-16T12:24:43;5.9;;;1.1;;
73315;SDS011;61545;53.726;-0.444;2022-10-16T12:29:43;4.8;;;0.9;;
73315;SDS011;61545;53.726;-0.444;2022-10-16T12:34:43;4.0;;;0.7;;
73315;SDS011;61545;53.726;-0.444;2022-10-16T12:39:43;3.0;;;0.6;;
73315;SDS011;61545;53.726;-0.444;2022-10-16T12:44:43;3.2;;;0.7;;
73315;SDS011;61545;53.726;-0.444;2022-10-16T12:49:52;3.2;;;0.7;;
73315;SDS011;61545;53.726;-0.444;2022-10-16T12:54:43;5.3;;;0.7;;
73315;SDS011;61545;53.726;-0.444;2022-10-16T12:59:45;3.8;;;1.1;;
73315;SDS011;61545;53.726;-0.444;2022-10-16T13:04:47;4.1;;;1.1;;
73315;SDS011;61545;53.726;-0.444;2022-10-16T13:09:49;5.9;;;0.8;;
73315;SDS011;61545;53.726;-0.444;2022-10-16T13:14:52;2.9;;;0.9;;
73315;SDS011;61545;53.726;-0.444;2022-10-16T13:19:45;2.9;;;0.9;;
73315;SDS011;61545;53.726;-0.444;2022-10-16T13:24:51;2.0;;;0.6;;
73315;SDS011;61545;53.726;-0.444;2022-10-16T13:29:43;5.8;;;0.9;;
73315;SDS011;61545;53.726;-0.444;2022-10-16T13:34:44;5.8;;;0.8;;
73315;SDS011;61545;53.726;-0.444;2022-10-16T13:39:43;3.6;;;0.6;;
73315;SDS011;61545;53.726;-0.444;2022-10-16T13:44:44;2.4;;;0.5;;
73315;SDS011;61545;53.726;-0.444;2022-10-16T13:49:43;2.4;;;0.5;;
73315;SDS011;61545;53.726;-0.444;2022-10-16T13:54:43;2.7;;;0.8;;
73315;SDS011;61545;53.726;-0.444;2022-10-16T13:59:43;2.4;;;0.8;;
73315;SDS011;61545;53.726;-0.444;2022-10-16T14:04:43;3.1;;;0.7;;
73315;SDS011;61545;53.726;-0.444;2022-10-16T14:09:47;2.7;;;0.7;;
73315;SDS011;61545;53.726;-0.444;2022-10-16T14:14:44;3.5;;;0.9;;
73315;SDS011;61545;53.726;-0.444;2022-10-16T14:19:45;3.5;;;0.9;;
73315;SDS011;61545;53.726;-0.444;2022-10-16T14:24:43;1.9;;;0.6;;
73315;SDS011;61545;53.726;-0.444;2022-10-16T14:29:43;3.7;;;0.8;;
73315;SDS011;61545;53.726;-0.444;2022-10-16T14:34:52;0.9;;;0.5;;
73315;SDS011;61545;53.726;-0.444;2022-10-16T14:39:48;2.7;;;0.6;;
73315;SDS011;61545;53.726;-0.444;2022-10-16T14:44:43;2.5;;;0.9;;
73315;SDS011;61545;53.726;-0.444;2022-10-16T14:49:43;2.5;;;0.9;;
73315;SDS011;61545;53.726;-0.444;2022-10-16T14:54:43;3.7;;;0.8;;
73315;SDS011;61545;53.726;-0.444;2022-10-16T14:59:43;4.8;;;0.9;;
73315;SDS011;61545;53.726;-0.444;2022-10-16T15:04:43;2.4;;;0.7;;
73315;SDS011;61545;53.726;-0.444;2022-10-16T15:09:43;3.1;;;0.8;;
73315;SDS011;61545;53.726;-0.444;2022-10-16T15:14:43;4.5;;;1;;
73315;SDS011;61545;53.726;-0.444;2022-10-16T15:19:43;4.5;;;1;;
73315;SDS011;61545;53.726;-0.444;2022-10-16T15:24:43;1.9;;;0.8;;
73315;SDS011;61545;53.726;-0.444;2022-10-16T15:29:43;2.0;;;0.7;;
73315;SDS011;61545;53.726;-0.444;2022-10-16T15:34:43;2.8;;;0.9;;
73315;SDS011;61545;53.726;-0.444;2022-10-16T15:39:43;4.3;;;1.1;;
73315;SDS011;61545;53.726;-0.444;2022-10-16T15:44:43;2.4;;;0.8;;
73315;SDS011;61545;53.726;-0.444;2022-10-16T15:49:43;2.4;;;0.8;;
73315;SDS011;61545;53.726;-0.444;2022-10-16T15:54:43;3.6;;;1.1;;
73315;SDS011;61545;53.726;-0.444;2022-10-16T15:59:43;4.7;;;1.4;;
73315;SDS011;61545;53.726;-0.444;2022-10-16T16:04:43;5.3;;;1.4;;
73315;SDS011;61545;53.726;-0.444;2022-10-16T16:09:43;10.4;;;4.1;;
73315;SDS011;61545;53.726;-0.444;2022-10-16T16:14:43;5.4;;;2.3;;
73315;SDS011;61545;53.726;-0.444;2022-10-16T16:19:43;5.4;;;2.3;;
73315;SDS011;61545;53.726;-0.444;2022-10-16T16:24:43;5.8;;;2.4;;
73315;SDS011;61545;53.726;-0.444;2022-10-16T16:29:43;8.1;;;2.4;;
73315;SDS011;61545;53.726;-0.444;2022-10-16T16:34:43;13.3;;;5.2;;
73315;SDS011;61545;53.726;-0.444;2022-10-16T16:39:43;11.4;;;4.8;;
73315;SDS011;61545;53.726;-0.444;2022-10-16T16:44:43;7.0;;;2.7;;
73315;SDS011;61545;53.726;-0.444;2022-10-16T16:49:43;7.0;;;2.7;;
73315;SDS011;61545;53.726;-0.444;2022-10-16T16:54:43;5.0;;;1.7;;
73315;SDS011;61545;53.726;-0.444;2022-10-16T16:59:43;4.3;;;1.5;;
73315;SDS011;61545;53.726;-0.444;2022-10-16T17:04:43;5.0;;;1.6;;
73315;SDS011;61545;53.726;-0.444;2022-10-16T17:09:43;4.7;;;1.6;;
73315;SDS011;61545;53.726;-0.444;2022-10-16T17:14:43;5.4;;;2.6;;
73315;SDS011;61545;53.726;-0.444;2022-10-16T17:19:43;5.4;;;2.6;;
73315;SDS011;61545;53.726;-0.444;2022-10-16T17:24:43;5.4;;;1.9;;
73315;SDS011;61545;53.726;-0.444;2022-10-16T17:29:43;7.0;;;2;;
73315;SDS011;61545;53.726;-0.444;2022-10-16T17:34:43;7.3;;;1.9;;
73315;SDS011;61545;53.726;-0.444;2022-10-16T17:39:43;4.6;;;1.7;;
73315;SDS011;61545;53.726;-0.444;2022-10-16T17:44:43;8.8;;;2;;
73315;SDS011;61545;53.726;-0.444;2022-10-16T17:49:43;8.8;;;2;;
73315;SDS011;61545;53.726;-0.444;2022-10-16T17:54:43;6.0;;;2.2;;
73315;SDS011;61545;53.726;-0.444;2022-10-16T17:59:43;6.6;;;2.3;;
73315;SDS011;61545;53.726;-0.444;2022-10-16T18:04:43;7.3;;;2.1;;
73315;SDS011;61545;53.726;-0.444;2022-10-16T18:09:43;7.1;;;1.8;;
73315;SDS011;61545;53.726;-0.444;2022-10-16T18:14:43;5.7;;;1.8;;
73315;SDS011;61545;53.726;-0.444;2022-10-16T18:19:43;5.7;;;1.8;;
73315;SDS011;61545;53.726;-0.444;2022-10-16T18:24:43;9.2;;;1.8;;
73315;SDS011;61545;53.726;-0.444;2022-10-16T18:29:43;6.2;;;2.1;;
73315;SDS011;61545;53.726;-0.444;2022-10-16T18:34:43;4.8;;;1.6;;
73315;SDS011;61545;53.726;-0.444;2022-10-16T18:39:45;4.6;;;1.7;;
73315;SDS011;61545;53.726;-0.444;2022-10-16T18:44:43;6.2;;;2.1;;
73315;SDS011;61545;53.726;-0.444;2022-10-16T18:49:43;6.2;;;2.1;;
73315;SDS011;61545;53.726;-0.444;2022-10-16T18:54:43;5.0;;;1.7;;
73315;SDS011;61545;53.726;-0.444;2022-10-16T18:59:43;6.0;;;2.3;;
73315;SDS011;61545;53.726;-0.444;2022-10-16T19:04:43;6.4;;;1.8;;
73315;SDS011;61545;53.726;-0.444;2022-10-16T19:09:43;4.2;;;1.9;;
73315;SDS011;61545;53.726;-0.444;2022-10-16T19:14:43;7.5;;;2.7;;
73315;SDS011;61545;53.726;-0.444;2022-10-16T19:19:43;7.5;;;2.7;;
73315;SDS011;61545;53.726;-0.444;2022-10-16T19:24:43;7.3;;;2.7;;
73315;SDS011;61545;53.726;-0.444;2022-10-16T19:29:43;8.7;;;2.8;;
73315;SDS011;61545;53.726;-0.444;2022-10-16T19:34:43;8.3;;;3.2;;
73315;SDS011;61545;53.726;-0.444;2022-10-16T19:39:43;7.7;;;2.3;;
73315;SDS011;61545;53.726;-0.444;2022-10-16T19:44:43;6.7;;;2.5;;
73315;SDS011;61545;53.726;-0.444;2022-10-16T19:49:43;6.7;;;2.5;;
73315;SDS011;61545;53.726;-0.444;2022-10-16T19:54:43;7.3;;;2.3;;
73315;SDS011;61545;53.726;-0.444;2022-10-16T19:59:43;8.0;;;2;;
73315;SDS011;61545;53.726;-0.444;2022-10-16T20:04:43;6.5;;;2.1;;
73315;SDS011;61545;53.726;-0.444;2022-10-16T20:09:43;4.8;;;1.7;;
73315;SDS011;61545;53.726;-0.444;2022-10-16T20:14:43;9.1;;;2.3;;
73315;SDS011;61545;53.726;-0.444;2022-10-16T20:19:43;9.1;;;2.3;;
73315;SDS011;61545;53.726;-0.444;2022-10-16T20:24:43;10.2;;;2;;
73315;SDS011;61545;53.726;-0.444;2022-10-16T20:29:43;8.1;;;1.9;;
73315;SDS011;61545;53.726;-0.444;2022-10-16T20:34:43;8.1;;;2;;
73315;SDS011;61545;53.726;-0.444;2022-10-16T20:39:43;7.1;;;1.6;;
73315;SDS011;61545;53.726;-0.444;2022-10-16T20:44:43;7.8;;;2.1;;
73315;SDS011;61545;53.726;-0.444;2022-10-16T20:49:45;7.8;;;2.1;;
73315;SDS011;61545;53.726;-0.444;2022-10-16T20:54:43;8.9;;;1.9;;
73315;SDS011;61545;53.726;-0.444;2022-10-16T20:59:43;8.8;;;2.2;;
73315;SDS011;61545;53.726;-0.444;2022-10-16T21:04:45;9.5;;;2;;
73315;SDS011;61545;53.726;-0.444;2022-10-16T21:09:43;10.2;;;2.4;;
73315;SDS011;61545;53.726;-0.444;2022-10-16T21:14:43;12.7;;;2.2;;
73315;SDS011;61545;53.726;-0.444;2022-10-16T21:19:43;12.7;;;2.2;;
73315;SDS011;61545;53.726;-0.444;2022-10-16T21:24:43;9.0;;;2.2;;
73315;SDS011;61545;53.726;-0.444;2022-10-16T21:29:43;13.9;;;2.9;;
73315;SDS011;61545;53.726;-0.444;2022-10-16T21:34:43;9.7;;;2.6;;
73315;SDS011;61545;53.726;-0.444;2022-10-16T21:39:43;15.2;;;2.5;;
73315;SDS011;61545;53.726;-0.444;2022-10-16T21:44:43;12.8;;;2.6;;
73315;SDS011;61545;53.726;-0.444;2022-10-16T21:49:43;12.8;;;2.6;;
73315;SDS011;61545;53.726;-0.444;2022-10-16T21:54:43;10.4;;;2;;
73315;SDS011;61545;53.726;-0.444;2022-10-16T21:59:43;11.8;;;2.2;;
73315;SDS011;61545;53.726;-0.444;2022-10-16T22:04:43;13.1;;;2.5;;
73315;SDS011;61545;53.726;-0.444;2022-10-16T22:09:43;16.0;;;3;;
73315;SDS011;61545;53.726;-0.444;2022-10-16T22:14:43;13.5;;;2.5;;
73315;SDS011;61545;53.726;-0.444;2022-10-16T22:19:43;13.5;;;2.5;;
73315;SDS011;61545;53.726;-0.444;2022-10-16T22:24:43;15.7;;;2.9;;
73315;SDS011;61545;53.726;-0.444;2022-10-16T22:29:43;17.8;;;3.8;;
73315;SDS011;61545;53.726;-0.444;2022-10-16T22:34:43;13.9;;;2.5;;
73315;SDS011;61545;53.726;-0.444;2022-10-16T22:39:43;14.5;;;3.3;;
73315;SDS011;61545;53.726;-0.444;2022-10-16T22:44:43;17.0;;;3;;
73315;SDS011;61545;53.726;-0.444;2022-10-16T22:49:43;17.0;;;3;;
73315;SDS011;61545;53.726;-0.444;2022-10-16T22:54:43;11.3;;;2.9;;
73315;SDS011;61545;53.726;-0.444;2022-10-16T22:59:43;21.4;;;3.6;;
73315;SDS011;61545;53.726;-0.444;2022-10-16T23:04:43;16.4;;;3;;
73315;SDS011;61545;53.726;-0.444;2022-10-16T23:09:43;12.7;;;3.3;;
73315;SDS011;61545;53.726;-0.444;2022-10-16T23:14:43;14.6;;;2.7;;
73315;SDS011;61545;53.726;-0.444;2022-10-16T23:19:43;14.6;;;2.7;;
73315;SDS011;61545;53.726;-0.444;2022-10-16T23:24:43;15.1;;;3;;
73315;SDS011;61545;53.726;-0.444;2022-10-16T23:29:43;9.9;;;2.5;;
73315;SDS011;61545;53.726;-0.444;2022-10-16T23:34:43;14.8;;;3.7;;
73315;SDS011;61545;53.726;-0.444;2022-10-16T23:39:43;12.6;;;2.8;;
73315;SDS011;61545;53.726;-0.444;2022-10-16T23:44:43;12.9;;;2.8;;
73315;SDS011;61545;53.726;-0.444;2022-10-16T23:49:43;12.9;;;2.8;;
73315;SDS011;61545;53.726;-0.444;2022-10-16T23:54:43;8.5;;;2.3;;
73315;SDS011;61545;53.726;-0.444;2022-10-16T23:59:43;9.7;;;2.4;;
